createdAt,value
2018-06-25T00:00:09.005Z,84.30
2018-06-25T00:02:37.537Z,83.70
2018-06-25T00:05:06.193Z,83.90
2018-06-25T00:07:34.713Z,85.30
2018-06-25T00:10:03.323Z,85.50
2018-06-25T00:12:31.869Z,85.60
2018-06-25T00:15:00.401Z,85.50
2018-06-25T00:17:28.913Z,87.70
2018-06-25T00:19:57.429Z,88.70
2018-06-25T00:22:25.933Z,90.00
2018-06-25T00:24:54.506Z,90.80
2018-06-25T00:27:23.033Z,90.80
2018-06-25T00:29:51.561Z,90.90
2018-06-25T00:32:20.064Z,91.20
2018-06-25T00:34:48.573Z,91.70
2018-06-25T00:37:17.109Z,92.10
2018-06-25T00:39:45.617Z,92.90
2018-06-25T00:42:14.138Z,93.20
2018-06-25T00:44:42.648Z,93.60
2018-06-25T00:47:11.165Z,93.20
2018-06-25T00:49:39.685Z,92.90
2018-06-25T00:52:08.193Z,92.60
2018-06-25T00:54:36.722Z,92.00
2018-06-25T00:57:05.253Z,92.10
2018-06-25T00:59:45.036Z,92.40
2018-06-25T01:02:13.601Z,92.90
2018-06-25T01:04:42.106Z,93.30
2018-06-25T01:07:10.641Z,93.20
2018-06-25T01:09:39.154Z,93.10
2018-06-25T01:12:07.821Z,93.40
2018-06-25T01:14:36.329Z,93.50
2018-06-25T01:17:05.306Z,93.50
2018-06-25T01:19:33.816Z,93.00
2018-06-25T01:22:02.445Z,92.70
2018-06-25T01:24:31.028Z,92.70
2018-06-25T01:27:00.458Z,92.80
2018-06-25T01:29:28.989Z,92.60
2018-06-25T01:31:57.520Z,92.80
2018-06-25T01:34:26.305Z,92.60
2018-06-25T01:36:54.825Z,92.70
2018-06-25T01:39:23.338Z,92.50
2018-06-25T01:41:51.875Z,91.80
2018-06-25T01:44:20.380Z,91.60
2018-06-25T01:46:48.901Z,91.80
2018-06-25T01:49:17.420Z,92.20
2018-06-25T01:51:45.969Z,92.60
2018-06-25T01:54:14.469Z,93.00
2018-06-25T01:56:43.345Z,93.30
2018-06-25T01:59:11.857Z,93.10
2018-06-25T02:01:40.413Z,93.20
2018-06-25T02:04:08.913Z,93.20
2018-06-25T02:06:37.421Z,93.40
2018-06-25T02:09:08.833Z,93.80
2018-06-25T02:11:37.348Z,93.40
2018-06-25T02:14:05.912Z,93.50
2018-06-25T02:16:34.449Z,94.20
2018-06-25T02:19:02.963Z,94.80
2018-06-25T02:21:31.485Z,95.40
2018-06-25T02:24:00.080Z,95.40
2018-06-25T02:26:28.908Z,95.80
2018-06-25T02:28:57.418Z,95.90
2018-06-25T02:31:26.186Z,96.70
2018-06-25T02:33:54.722Z,97.70
2018-06-25T02:36:23.245Z,98.10
2018-06-25T02:38:51.777Z,98.70
2018-06-25T02:41:20.311Z,99.30
2018-06-25T02:43:48.836Z,99.90
2018-06-25T02:46:17.577Z,99.90
2018-06-25T02:48:46.092Z,99.90
2018-06-25T02:51:14.694Z,99.90
2018-06-25T02:53:43.217Z,99.90
2018-06-25T02:56:11.772Z,99.90
2018-06-25T02:58:40.274Z,99.90
2018-06-25T03:01:08.794Z,99.90
2018-06-25T03:03:37.332Z,99.90
2018-06-25T03:06:05.891Z,99.90
2018-06-25T03:08:34.417Z,99.90
2018-06-25T03:11:03.114Z,99.90
2018-06-25T03:13:31.622Z,99.90
2018-06-25T03:16:00.149Z,99.90
2018-06-25T03:18:28.673Z,99.90
2018-06-25T03:20:57.239Z,99.90
2018-06-25T03:23:25.766Z,99.90
2018-06-25T03:25:54.276Z,99.90
2018-06-25T03:28:22.782Z,99.90
2018-06-25T03:30:51.277Z,99.60
2018-06-25T03:33:19.809Z,99.00
2018-06-25T03:35:48.333Z,98.70
2018-06-25T03:38:16.848Z,98.40
2018-06-25T03:40:45.389Z,98.10
2018-06-25T03:43:13.887Z,97.80
2018-06-25T03:45:42.425Z,97.50
2018-06-25T03:48:10.950Z,97.00
2018-06-25T03:50:39.732Z,96.50
2018-06-25T03:53:08.242Z,96.50
2018-06-25T03:55:36.805Z,96.90
2018-06-25T04:00:33.973Z,97.90
2018-06-25T04:05:30.722Z,97.70
2018-06-25T04:07:59.235Z,97.20
2018-06-25T04:10:27.765Z,96.90
2018-06-25T04:12:56.581Z,96.80
2018-06-25T04:15:25.102Z,96.70
2018-06-25T04:17:53.598Z,96.90
2018-06-25T04:20:22.145Z,96.80
2018-06-25T04:22:50.657Z,96.90
2018-06-25T04:25:19.181Z,97.30
2018-06-25T04:27:47.766Z,97.30
2018-06-25T04:30:16.269Z,97.30
2018-06-25T04:32:44.810Z,97.60
2018-06-25T04:35:13.321Z,97.60
2018-06-25T04:37:41.830Z,97.20
2018-06-25T04:40:10.415Z,97.60
2018-06-25T04:42:38.890Z,97.60
2018-06-25T04:45:07.393Z,97.70
2018-06-25T04:47:35.893Z,98.10
2018-06-25T04:50:04.458Z,97.80
2018-06-25T04:52:32.958Z,97.80
2018-06-25T04:55:01.466Z,98.00
2018-06-25T04:57:29.992Z,97.70
2018-06-25T04:59:58.501Z,97.40
2018-06-25T05:02:27.037Z,97.30
2018-06-25T05:04:55.545Z,97.30
2018-06-25T05:07:24.073Z,97.40
2018-06-25T05:09:52.582Z,97.70
2018-06-25T05:12:21.090Z,97.50
2018-06-25T05:14:49.597Z,97.50
2018-06-25T05:17:18.118Z,97.20
2018-06-25T05:19:46.654Z,97.20
2018-06-25T05:22:15.181Z,96.80
2018-06-25T05:24:43.718Z,97.00
2018-06-25T05:27:12.266Z,97.10
2018-06-25T05:29:40.781Z,96.90
2018-06-25T05:32:09.298Z,96.90
2018-06-25T05:34:37.834Z,96.70
2018-06-25T05:37:06.350Z,96.80
2018-06-25T05:39:34.897Z,96.50
2018-06-25T05:42:03.469Z,96.50
2018-06-25T05:44:31.993Z,96.30
2018-06-25T05:47:00.505Z,96.30
2018-06-25T05:49:29.037Z,96.30
2018-06-25T05:51:57.561Z,96.30
2018-06-25T05:56:54.253Z,95.70
2018-06-25T05:59:22.770Z,95.30
2018-06-25T06:01:51.457Z,94.30
2018-06-25T06:04:19.956Z,92.70
2018-06-25T06:06:48.493Z,92.00
2018-06-25T06:09:17.151Z,91.30
2018-06-25T06:11:45.657Z,91.20
2018-06-25T06:14:14.225Z,91.40
2018-06-25T06:16:42.757Z,90.20
2018-06-25T06:19:11.269Z,88.60
2018-06-25T06:21:39.785Z,90.70
2018-06-25T06:24:08.292Z,91.00
2018-06-25T06:26:36.812Z,90.70
2018-06-25T06:29:05.374Z,91.00
2018-06-25T06:31:34.053Z,92.20
2018-06-25T06:34:02.573Z,92.20
2018-06-25T06:36:31.181Z,92.30
2018-06-25T06:38:59.689Z,91.90
2018-06-25T06:41:28.218Z,92.80
2018-06-25T06:46:24.954Z,92.20
2018-06-25T06:48:53.478Z,92.20
2018-06-25T06:51:22.097Z,91.40
2018-06-25T06:53:50.570Z,91.30
2018-06-25T06:56:19.089Z,90.90
2018-06-25T06:58:47.618Z,91.00
2018-06-25T07:01:16.122Z,86.50
2018-06-25T07:03:44.645Z,86.60
2018-06-25T07:06:13.189Z,83.60
2018-06-25T07:08:41.709Z,82.70
2018-06-25T07:11:10.233Z,80.30
2018-06-25T07:13:38.770Z,81.60
2018-06-25T07:16:07.312Z,80.40
2018-06-25T07:18:35.815Z,79.90
2018-06-25T07:21:04.633Z,79.20
2018-06-25T07:23:33.229Z,78.00
2018-06-25T07:26:01.764Z,72.80
2018-06-25T07:28:30.273Z,72.50
2018-06-25T07:30:58.805Z,72.10
2018-06-25T07:33:27.342Z,70.80
2018-06-25T07:35:55.869Z,72.50
2018-06-25T07:38:24.416Z,71.80
2018-06-25T07:40:52.953Z,69.80
2018-06-25T07:43:21.486Z,67.50
2018-06-25T07:45:50.049Z,67.20
2018-06-25T07:48:18.582Z,67.90
2018-06-25T07:50:47.229Z,67.50
2018-06-25T07:53:15.789Z,67.70
2018-06-25T07:55:44.290Z,65.50
2018-06-25T07:58:12.814Z,64.30
2018-06-25T08:00:41.353Z,64.30
2018-06-25T08:03:09.885Z,64.40
2018-06-25T08:05:38.437Z,63.70
2018-06-25T08:08:07.265Z,61.60
2018-06-25T08:10:35.857Z,62.70
2018-06-25T08:13:04.381Z,63.00
2018-06-25T08:15:32.926Z,61.90
2018-06-25T08:18:01.451Z,62.10
2018-06-25T08:20:30.044Z,59.70
2018-06-25T08:22:58.602Z,59.30
2018-06-25T08:25:27.097Z,59.20
2018-06-25T08:27:55.645Z,59.20
2018-06-25T08:30:24.173Z,59.10
2018-06-25T08:32:53.460Z,61.10
2018-06-25T08:35:22.025Z,59.90
2018-06-25T08:40:19.131Z,60.20
2018-06-25T08:42:47.909Z,59.80
2018-06-25T08:45:16.779Z,58.80
2018-06-25T08:47:45.590Z,59.00
2018-06-25T08:50:14.691Z,57.10
2018-06-25T08:52:43.185Z,57.60
2018-06-25T08:55:12.044Z,57.30
2018-06-25T08:57:40.562Z,57.70
2018-06-25T09:00:09.082Z,57.80
2018-06-25T09:02:37.818Z,57.30
2018-06-25T09:05:06.499Z,56.50
2018-06-25T09:07:34.997Z,56.10
2018-06-25T09:10:03.505Z,57.10
2018-06-25T09:12:32.126Z,57.10
2018-06-25T09:15:00.617Z,57.00
2018-06-25T09:17:29.121Z,57.20
2018-06-25T09:19:57.689Z,57.90
2018-06-25T09:22:26.215Z,57.60
2018-06-25T09:24:54.716Z,58.00
2018-06-25T09:27:23.209Z,57.70
2018-06-25T09:29:51.753Z,57.30
2018-06-25T09:32:20.258Z,56.90
2018-06-25T09:34:49.795Z,57.30
2018-06-25T09:37:19.183Z,56.80
2018-06-25T09:39:47.701Z,57.20
2018-06-25T09:42:16.234Z,57.30
2018-06-25T09:44:44.736Z,55.20
2018-06-25T09:47:13.261Z,56.00
2018-06-25T09:49:41.770Z,54.60
2018-06-25T09:52:10.297Z,55.30
2018-06-25T09:54:38.849Z,56.10
2018-06-25T09:57:07.345Z,56.10
2018-06-25T09:59:35.853Z,56.30
2018-06-25T10:02:04.381Z,55.00
2018-06-25T10:04:32.898Z,54.90
2018-06-25T10:07:01.578Z,54.80
2018-06-25T10:09:30.087Z,54.20
2018-06-25T10:11:58.649Z,53.90
2018-06-25T10:16:55.374Z,52.90
2018-06-25T10:19:23.912Z,54.00
2018-06-25T10:21:52.665Z,53.40
2018-06-25T10:26:49.342Z,52.50
2018-06-25T10:29:17.869Z,53.10
2018-06-25T10:31:46.365Z,53.80
2018-06-25T10:34:14.902Z,53.10
2018-06-25T10:36:43.457Z,54.80
2018-06-25T10:39:12.351Z,55.00
2018-06-25T10:41:40.873Z,54.50
2018-06-25T10:44:09.813Z,52.70
2018-06-25T10:46:38.345Z,51.90
2018-06-25T10:49:06.887Z,51.50
2018-06-25T10:51:35.426Z,50.70
2018-06-25T10:54:03.982Z,51.50
2018-06-25T10:56:32.513Z,51.80
2018-06-25T10:59:01.026Z,51.70
2018-06-25T11:01:29.568Z,51.30
2018-06-25T11:03:58.110Z,51.00
2018-06-25T11:06:26.636Z,50.60
2018-06-25T11:08:55.145Z,50.30
2018-06-25T11:11:24.201Z,50.80
2018-06-25T11:13:52.722Z,51.00
2018-06-25T11:16:21.237Z,50.70
2018-06-25T11:18:49.750Z,51.10
2018-06-25T11:21:18.288Z,51.60
2018-06-25T11:23:46.825Z,51.40
2018-06-25T11:26:15.373Z,51.60
2018-06-25T11:28:43.901Z,52.00
2018-06-25T11:31:12.429Z,51.90
2018-06-25T11:33:40.958Z,52.50
2018-06-25T11:36:09.477Z,52.80
2018-06-25T11:38:38.013Z,53.60
2018-06-25T11:41:06.568Z,53.10
2018-06-25T11:43:35.094Z,53.00
2018-06-25T11:46:03.605Z,54.10
2018-06-25T11:48:32.167Z,53.70
2018-06-25T11:51:00.701Z,52.30
2018-06-25T11:53:29.205Z,51.60
2018-06-25T11:55:57.721Z,52.10
2018-06-25T11:58:26.232Z,52.20
2018-06-25T12:00:54.753Z,51.40
2018-06-25T12:03:23.292Z,51.40
2018-06-25T12:05:51.778Z,50.70
2018-06-25T12:08:20.310Z,50.90
2018-06-25T12:10:48.805Z,51.90
2018-06-25T12:13:17.324Z,51.40
2018-06-25T12:15:45.829Z,51.20
2018-06-25T12:18:14.349Z,50.20
2018-06-25T12:20:42.862Z,50.60
2018-06-25T12:23:11.504Z,51.00
2018-06-25T12:25:40.003Z,49.70
2018-06-25T12:30:36.717Z,49.10
2018-06-25T12:33:05.557Z,49.50
2018-06-25T12:35:34.137Z,48.80
2018-06-25T12:38:02.770Z,48.10
2018-06-25T12:40:31.181Z,47.10
2018-06-25T12:42:59.741Z,47.50
2018-06-25T12:45:28.191Z,46.10
2018-06-25T12:47:56.705Z,46.70
2018-06-25T12:50:25.260Z,45.30
2018-06-25T12:52:53.769Z,42.80
2018-06-25T12:55:22.281Z,43.80
2018-06-25T12:57:50.785Z,43.00
2018-06-25T13:00:19.325Z,44.10
2018-06-25T13:02:47.901Z,43.20
2018-06-25T13:05:16.632Z,41.60
2018-06-25T13:07:45.161Z,41.90
2018-06-25T13:10:13.669Z,41.20
2018-06-25T13:12:42.184Z,41.30
2018-06-25T13:15:10.769Z,40.70
2018-06-25T13:17:39.301Z,41.20
2018-06-25T13:20:07.933Z,40.30
2018-06-25T13:22:36.481Z,40.90
2018-06-25T13:25:05.230Z,41.20
2018-06-25T13:27:34.373Z,41.30
2018-06-25T13:30:02.899Z,39.30
2018-06-25T13:32:31.417Z,40.80
2018-06-25T13:34:59.928Z,40.80
2018-06-25T13:37:28.437Z,42.50
2018-06-25T13:39:56.975Z,43.60
2018-06-25T13:42:25.507Z,43.90
2018-06-25T13:44:54.121Z,43.70
2018-06-25T13:47:22.642Z,44.10
2018-06-25T13:49:51.165Z,44.40
2018-06-25T13:52:19.697Z,43.10
2018-06-25T13:54:48.254Z,44.00
2018-06-25T13:57:16.761Z,43.80
2018-06-25T13:59:45.364Z,44.30
2018-06-25T14:02:13.921Z,44.40
2018-06-25T14:04:42.437Z,44.40
2018-06-25T14:07:11.003Z,44.20
2018-06-25T14:09:39.795Z,43.00
2018-06-25T14:14:36.553Z,42.40
2018-06-25T14:17:05.158Z,41.50
2018-06-25T14:19:33.677Z,41.30
2018-06-25T14:22:02.190Z,40.80
2018-06-25T14:24:36.142Z,41.20
2018-06-25T14:27:09.629Z,40.20
2018-06-25T14:29:38.616Z,40.50
2018-06-25T14:32:11.168Z,38.40
2018-06-25T14:34:40.080Z,40.00
2018-06-25T14:37:10.302Z,40.40
2018-06-25T14:39:38.817Z,40.00
2018-06-25T14:42:07.981Z,41.20
2018-06-25T14:44:36.481Z,41.90
2018-06-25T14:47:05.009Z,42.40
2018-06-25T14:49:33.526Z,42.50
2018-06-25T14:52:02.038Z,42.90
2018-06-25T14:54:30.554Z,43.10
2018-06-25T14:56:59.152Z,41.90
2018-06-25T14:59:27.674Z,43.10
2018-06-25T15:01:56.197Z,42.30
2018-06-25T15:04:24.690Z,43.00
2018-06-25T15:06:53.317Z,43.00
2018-06-25T15:09:21.834Z,42.60
2018-06-25T15:11:50.364Z,43.50
2018-06-25T15:14:18.885Z,43.80
2018-06-25T15:16:47.408Z,42.50
2018-06-25T15:19:15.981Z,41.20
2018-06-25T15:21:44.602Z,41.50
2018-06-25T15:24:13.120Z,42.50
2018-06-25T15:26:41.698Z,42.40
2018-06-25T15:29:10.204Z,40.90
2018-06-25T15:31:38.710Z,41.20
2018-06-25T15:34:07.255Z,43.70
2018-06-25T15:36:35.789Z,40.80
2018-06-25T15:41:34.738Z,38.40
2018-06-25T15:44:03.538Z,39.20
2018-06-25T15:46:32.064Z,40.20
2018-06-25T15:49:00.854Z,40.40
2018-06-25T15:51:29.445Z,40.60
2018-06-25T15:53:58.452Z,41.10
2018-06-25T15:56:27.137Z,41.70
2018-06-25T15:58:55.665Z,41.10
2018-06-25T16:01:24.214Z,41.70
2018-06-25T16:03:52.714Z,42.60
2018-06-25T16:06:21.253Z,43.30
2018-06-25T16:08:49.765Z,44.00
2018-06-25T16:11:18.289Z,44.70
2018-06-25T16:13:46.837Z,45.20
2018-06-25T16:16:15.345Z,45.50
2018-06-25T16:18:43.873Z,45.30
2018-06-25T16:21:12.401Z,43.80
2018-06-25T16:23:40.929Z,44.40
2018-06-25T16:26:09.483Z,44.90
2018-06-25T16:28:38.026Z,44.20
2018-06-25T16:31:06.592Z,44.10
2018-06-25T16:33:35.123Z,45.80
2018-06-25T16:36:03.686Z,46.30
2018-06-25T16:38:32.190Z,47.20
2018-06-25T16:41:00.755Z,47.80
2018-06-25T16:43:29.285Z,48.00
2018-06-25T16:45:57.816Z,48.60
2018-06-25T16:48:26.329Z,49.00
2018-06-25T16:50:54.821Z,49.40
2018-06-25T16:53:23.346Z,50.00
2018-06-25T16:55:51.853Z,50.60
2018-06-25T16:58:21.299Z,51.10
2018-06-25T17:00:49.770Z,51.40
2018-06-25T17:03:18.321Z,51.80
2018-06-25T17:05:46.875Z,52.00
2018-06-25T17:08:15.393Z,52.20
2018-06-25T17:10:43.990Z,52.20
2018-06-25T17:13:12.447Z,52.30
2018-06-25T17:15:40.945Z,52.60
2018-06-25T17:18:09.453Z,52.80
2018-06-25T17:20:37.961Z,53.20
2018-06-25T17:25:34.677Z,53.70
2018-06-25T17:28:03.229Z,54.00
2018-06-25T17:30:31.733Z,54.40
2018-06-25T17:33:00.241Z,54.70
2018-06-25T17:35:28.773Z,55.10
2018-06-25T17:37:57.297Z,55.30
2018-06-25T17:40:25.793Z,55.60
2018-06-25T17:42:54.301Z,55.80
2018-06-25T17:45:22.801Z,55.90
2018-06-25T17:47:51.329Z,56.20
2018-06-25T17:50:19.881Z,56.30
2018-06-25T17:52:48.385Z,56.50
2018-06-25T17:55:16.901Z,56.50
2018-06-25T17:57:45.421Z,56.30
2018-06-25T18:00:13.953Z,56.30
2018-06-25T18:02:42.533Z,56.10
2018-06-25T18:05:11.215Z,56.00
2018-06-25T18:07:39.735Z,55.90
2018-06-25T18:10:08.257Z,55.80
2018-06-25T18:12:36.769Z,55.80
2018-06-25T18:15:05.717Z,55.80
2018-06-25T18:17:34.327Z,55.80
2018-06-25T18:20:02.837Z,55.60
2018-06-25T18:22:31.350Z,56.30
2018-06-25T18:24:59.895Z,55.60
2018-06-25T18:27:28.405Z,55.50
2018-06-25T18:29:56.945Z,55.60
2018-06-25T18:32:25.644Z,55.60
2018-06-25T18:34:54.190Z,55.50
2018-06-25T18:37:22.728Z,55.60
2018-06-25T18:39:51.236Z,55.40
2018-06-25T18:42:19.757Z,55.60
2018-06-25T18:44:48.322Z,55.60
2018-06-25T18:47:16.777Z,55.70
2018-06-25T18:49:45.290Z,55.80
2018-06-25T18:52:13.817Z,55.90
2018-06-25T18:54:42.326Z,56.00
2018-06-25T18:57:10.859Z,56.20
2018-06-25T18:59:39.379Z,56.40
2018-06-25T19:02:07.969Z,56.80
2018-06-25T19:04:36.473Z,56.90
2018-06-25T19:07:05.102Z,56.90
2018-06-25T19:09:33.628Z,57.00
2018-06-25T19:12:02.172Z,57.10
2018-06-25T19:14:30.677Z,57.20
2018-06-25T19:16:59.224Z,57.80
2018-06-25T19:19:27.765Z,57.80
2018-06-25T19:21:56.286Z,57.50
2018-06-25T19:24:24.957Z,57.70
2018-06-25T19:26:53.789Z,57.60
2018-06-25T19:29:22.393Z,57.50
2018-06-25T19:31:50.966Z,57.60
2018-06-25T19:34:19.501Z,57.70
2018-06-25T19:36:48.093Z,57.90
2018-06-25T19:39:16.637Z,58.00
2018-06-25T19:41:45.145Z,58.40
2018-06-25T19:44:13.685Z,58.20
2018-06-25T19:46:42.266Z,58.30
2018-06-25T19:49:10.739Z,58.40
2018-06-25T19:51:39.253Z,58.40
2018-06-25T19:54:08.185Z,58.50
2018-06-25T19:56:36.690Z,58.70
2018-06-25T19:59:05.218Z,58.80
2018-06-25T20:01:33.905Z,58.90
2018-06-25T20:04:02.438Z,58.90
2018-06-25T20:06:30.977Z,59.00
2018-06-25T20:08:59.653Z,59.00
2018-06-25T20:11:28.231Z,58.90
2018-06-25T20:13:56.802Z,58.90
2018-06-25T20:16:25.301Z,59.00
2018-06-25T20:18:53.837Z,59.10
2018-06-25T20:21:22.373Z,59.10
2018-06-25T20:23:50.914Z,59.30
2018-06-25T20:26:19.474Z,59.50
2018-06-25T20:31:16.181Z,59.90
2018-06-25T20:33:45.078Z,60.00
2018-06-25T20:36:13.923Z,60.40
2018-06-25T20:38:42.802Z,60.60
2018-06-25T20:41:11.356Z,60.80
2018-06-25T20:43:39.930Z,61.20
2018-06-25T20:46:08.462Z,61.20
2018-06-25T20:48:37.029Z,61.40
2018-06-25T20:51:05.568Z,61.60
2018-06-25T20:53:34.130Z,61.80
2018-06-25T20:56:02.642Z,61.90
2018-06-25T20:58:31.185Z,62.20
2018-06-25T21:00:59.713Z,62.70
2018-06-25T21:03:28.424Z,63.00
2018-06-25T21:05:56.766Z,63.20
2018-06-25T21:08:25.305Z,63.50
2018-06-25T21:10:53.821Z,63.90
2018-06-25T21:13:22.341Z,64.10
2018-06-25T21:18:19.061Z,64.90
2018-06-25T21:20:47.649Z,64.70
2018-06-25T21:23:16.183Z,64.90
2018-06-25T21:25:44.721Z,65.00
2018-06-25T21:28:13.262Z,65.40
2018-06-25T21:30:41.765Z,65.70
2018-06-25T21:33:10.338Z,66.00
2018-06-25T21:35:38.909Z,66.10
2018-06-25T21:38:07.465Z,66.60
2018-06-25T21:40:36.021Z,66.80
2018-06-25T21:43:04.565Z,67.40
2018-06-25T21:45:33.093Z,67.70
2018-06-25T21:48:01.619Z,67.60
2018-06-25T21:50:30.165Z,67.70
2018-06-25T21:52:58.658Z,68.00
2018-06-25T21:55:27.236Z,67.50
2018-06-25T21:57:55.768Z,67.90
2018-06-25T22:00:26.853Z,67.90
2018-06-25T22:02:55.373Z,67.80
2018-06-25T22:05:23.897Z,69.90
2018-06-25T22:07:52.440Z,70.70
2018-06-25T22:10:20.982Z,71.00
2018-06-25T22:12:49.489Z,70.70
2018-06-25T22:15:18.005Z,69.70
2018-06-25T22:17:46.518Z,67.70
2018-06-25T22:20:15.051Z,66.80
2018-06-25T22:22:43.617Z,66.30
2018-06-25T22:25:12.096Z,66.10
2018-06-25T22:27:40.633Z,66.40
2018-06-25T22:30:09.174Z,66.90
2018-06-25T22:32:37.681Z,65.80
2018-06-25T22:35:06.243Z,66.00
2018-06-25T22:37:34.765Z,66.70
2018-06-25T22:40:03.314Z,68.90
2018-06-25T22:42:34.421Z,72.30
2018-06-25T22:47:31.130Z,78.90
2018-06-25T22:49:59.696Z,82.40
2018-06-25T22:52:28.202Z,84.30
2018-06-25T22:54:56.713Z,84.60
2018-06-25T22:57:25.241Z,85.20
2018-06-25T22:59:53.746Z,85.80
2018-06-25T23:02:22.261Z,82.20
2018-06-25T23:04:50.788Z,83.30
2018-06-25T23:07:19.314Z,86.30
2018-06-25T23:09:47.822Z,89.60
2018-06-25T23:12:16.329Z,89.10
2018-06-25T23:14:44.842Z,90.40
2018-06-25T23:17:13.354Z,91.40
2018-06-25T23:19:41.877Z,91.90
2018-06-25T23:22:10.400Z,92.80
2018-06-25T23:24:38.917Z,93.30
2018-06-25T23:27:07.641Z,93.70
2018-06-25T23:29:36.153Z,92.90
2018-06-25T23:32:04.679Z,93.10
2018-06-25T23:34:33.241Z,93.40
2018-06-25T23:37:01.742Z,93.40
2018-06-25T23:39:30.269Z,93.60
2018-06-25T23:41:58.793Z,93.80
2018-06-25T23:44:27.296Z,94.20
2018-06-25T23:46:55.835Z,94.00
2018-06-25T23:49:24.345Z,94.10
2018-06-25T23:51:52.873Z,94.20
2018-06-25T23:54:21.409Z,93.40
2018-06-25T23:56:49.932Z,93.80
2018-06-25T23:59:18.469Z,93.40
